createdAt,value
2018-06-29T00:00:16.479Z,2.50
2018-06-29T00:02:45.336Z,2.83
2018-06-29T00:05:13.858Z,2.70
2018-06-29T00:07:42.186Z,2.90
2018-06-29T00:10:12.032Z,2.80
2018-06-29T00:12:40.394Z,3.03
2018-06-29T00:15:08.790Z,2.90
2018-06-29T00:17:37.105Z,2.90
2018-06-29T00:20:05.634Z,2.67
2018-06-29T00:22:33.954Z,2.80
2018-06-29T00:25:02.295Z,2.53
2018-06-29T00:27:30.636Z,2.73
2018-06-29T00:29:58.961Z,2.73
2018-06-29T00:32:27.396Z,2.83
2018-06-29T00:34:55.835Z,3.33
2018-06-29T00:37:24.114Z,3.30
2018-06-29T00:39:52.424Z,2.87
2018-06-29T00:42:20.769Z,2.60
2018-06-29T00:44:49.117Z,2.83
2018-06-29T00:47:17.441Z,2.67
2018-06-29T00:49:45.778Z,3.13
2018-06-29T00:52:14.088Z,2.93
2018-06-29T00:54:42.487Z,3.00
2018-06-29T00:57:10.843Z,3.27
2018-06-29T00:59:39.200Z,3.23
2018-06-29T01:02:07.511Z,3.50
2018-06-29T01:04:35.842Z,3.03
2018-06-29T01:07:04.204Z,3.50
2018-06-29T01:09:32.548Z,2.80
2018-06-29T01:12:00.879Z,2.83
2018-06-29T01:14:29.194Z,2.80
2018-06-29T01:16:57.516Z,2.80
2018-06-29T01:19:25.886Z,2.60
2018-06-29T01:21:54.191Z,2.90
2018-06-29T01:24:22.521Z,2.87
2018-06-29T01:26:50.897Z,3.17
2018-06-29T01:29:19.206Z,3.00
2018-06-29T01:31:47.525Z,2.70
2018-06-29T01:34:15.865Z,2.80
2018-06-29T01:36:44.199Z,3.53
2018-06-29T01:39:12.523Z,2.73
2018-06-29T01:41:40.864Z,2.80
2018-06-29T01:44:09.195Z,2.80
2018-06-29T01:46:37.539Z,3.40
2018-06-29T01:49:05.851Z,2.70
2018-06-29T01:51:34.187Z,2.80
2018-06-29T01:54:02.507Z,2.90
2018-06-29T01:56:30.826Z,2.93
2018-06-29T01:58:59.147Z,3.33
2018-06-29T02:01:27.470Z,2.87
2018-06-29T02:03:55.800Z,3.00
2018-06-29T02:06:24.124Z,3.07
2018-06-29T02:08:52.439Z,2.90
2018-06-29T02:11:20.768Z,2.70
2018-06-29T02:13:49.169Z,3.10
2018-06-29T02:16:17.513Z,3.20
2018-06-29T02:18:45.875Z,2.63
2018-06-29T02:21:14.199Z,3.00
2018-06-29T02:23:42.509Z,3.13
2018-06-29T02:26:10.840Z,3.00
2018-06-29T02:28:39.149Z,2.90
2018-06-29T02:31:07.460Z,3.47
2018-06-29T02:33:35.790Z,3.20
2018-06-29T02:36:04.137Z,3.13
2018-06-29T02:38:32.456Z,3.40
2018-06-29T02:41:00.804Z,3.30
2018-06-29T02:43:29.114Z,3.10
2018-06-29T02:45:57.430Z,3.20
2018-06-29T02:48:25.752Z,3.00
2018-06-29T02:50:54.142Z,3.33
2018-06-29T02:53:22.451Z,3.30
2018-06-29T02:55:50.870Z,3.17
2018-06-29T02:58:19.216Z,2.90
2018-06-29T03:00:47.527Z,3.33
2018-06-29T03:03:15.852Z,3.20
2018-06-29T03:05:44.317Z,3.10
2018-06-29T03:08:12.634Z,2.63
2018-06-29T03:10:40.948Z,3.23
2018-06-29T03:13:09.250Z,2.90
2018-06-29T03:15:37.589Z,2.80
2018-06-29T03:18:05.952Z,2.70
2018-06-29T03:20:34.258Z,3.00
2018-06-29T03:23:02.564Z,3.10
2018-06-29T03:25:30.883Z,3.13
2018-06-29T03:27:59.224Z,3.50
2018-06-29T03:30:27.542Z,2.73
2018-06-29T03:32:55.924Z,3.13
2018-06-29T03:35:24.206Z,2.80
2018-06-29T03:37:52.515Z,2.90
2018-06-29T03:40:20.899Z,3.00
2018-06-29T03:42:49.142Z,2.97
2018-06-29T03:45:17.464Z,3.10
2018-06-29T03:47:45.789Z,3.30
2018-06-29T03:50:14.115Z,2.90
2018-06-29T03:52:42.454Z,3.13
2018-06-29T03:55:10.775Z,3.30
2018-06-29T03:57:39.113Z,3.33
2018-06-29T04:00:07.433Z,3.07
2018-06-29T04:02:35.783Z,3.20
2018-06-29T04:05:04.111Z,2.97
2018-06-29T04:07:32.435Z,3.17
2018-06-29T04:10:00.743Z,2.90
2018-06-29T04:12:29.065Z,2.90
2018-06-29T04:14:57.441Z,3.37
2018-06-29T04:17:25.774Z,3.30
2018-06-29T04:19:54.094Z,3.33
2018-06-29T04:22:22.413Z,3.60
2018-06-29T04:24:50.729Z,3.37
2018-06-29T04:27:19.064Z,3.70
2018-06-29T04:29:47.364Z,4.13
2018-06-29T04:32:15.700Z,3.57
2018-06-29T04:34:44.018Z,3.77
2018-06-29T04:37:12.326Z,4.10
2018-06-29T04:39:40.671Z,3.90
2018-06-29T04:42:08.983Z,3.80
2018-06-29T04:44:37.295Z,3.73
2018-06-29T04:47:05.608Z,4.23
2018-06-29T04:49:33.924Z,4.10
2018-06-29T04:52:02.238Z,4.07
2018-06-29T04:54:30.591Z,3.70
2018-06-29T04:56:59.934Z,3.40
2018-06-29T04:59:28.268Z,3.60
2018-06-29T05:01:56.600Z,3.90
2018-06-29T05:04:24.926Z,3.80
2018-06-29T05:06:53.478Z,3.83
2018-06-29T05:09:21.858Z,3.70
2018-06-29T05:11:50.308Z,3.20
2018-06-29T05:14:18.644Z,3.87
2018-06-29T05:16:46.949Z,3.37
2018-06-29T05:19:15.261Z,3.40
2018-06-29T05:21:43.569Z,3.20
2018-06-29T05:24:11.878Z,3.33
2018-06-29T05:26:40.211Z,3.03
2018-06-29T05:29:08.575Z,3.17
2018-06-29T05:31:36.858Z,2.80
2018-06-29T05:34:05.301Z,3.67
2018-06-29T05:36:33.648Z,3.13
2018-06-29T05:39:01.998Z,2.97
2018-06-29T05:41:30.449Z,3.00
2018-06-29T05:43:58.745Z,2.87
2018-06-29T05:46:27.088Z,3.00
2018-06-29T05:48:55.441Z,3.13
2018-06-29T05:51:23.760Z,3.30
2018-06-29T05:53:52.065Z,3.27
2018-06-29T05:56:20.400Z,3.07
2018-06-29T05:58:48.752Z,3.13
2018-06-29T06:01:17.090Z,3.07
2018-06-29T06:03:45.446Z,2.80
2018-06-29T06:06:13.787Z,2.70
2018-06-29T06:08:42.147Z,2.77
2018-06-29T06:11:10.481Z,2.60
2018-06-29T06:13:38.833Z,2.47
2018-06-29T06:16:07.188Z,2.33
2018-06-29T06:18:35.564Z,2.03
2018-06-29T06:21:03.936Z,2.30
2018-06-29T06:23:32.266Z,2.30
2018-06-29T06:26:00.580Z,2.10
2018-06-29T06:28:28.931Z,2.00
2018-06-29T06:30:57.275Z,2.30
2018-06-29T06:33:25.645Z,2.30
2018-06-29T06:35:53.995Z,1.80
2018-06-29T06:38:22.324Z,2.00
2018-06-29T06:40:50.680Z,2.30
2018-06-29T06:43:19.039Z,2.00
2018-06-29T06:45:47.410Z,2.10
2018-06-29T06:48:15.764Z,1.80
2018-06-29T06:50:44.103Z,2.20
2018-06-29T06:53:12.485Z,1.90
2018-06-29T06:55:40.855Z,2.10
2018-06-29T06:58:09.201Z,2.10
2018-06-29T07:00:37.539Z,2.08
2018-06-29T07:03:05.883Z,1.90
2018-06-29T07:05:34.237Z,1.70
2018-06-29T07:08:02.587Z,1.60
2018-06-29T07:10:30.898Z,1.47
2018-06-29T07:14:23.691Z,1.37
2018-06-29T07:16:52.040Z,1.62
2018-06-29T07:19:20.408Z,1.52
2018-06-29T07:21:48.753Z,1.35
2018-06-29T07:24:17.133Z,1.30
2018-06-29T07:26:45.501Z,1.65
2018-06-29T07:29:13.852Z,1.47
2018-06-29T07:31:42.186Z,1.20
2018-06-29T07:34:10.518Z,1.30
2018-06-29T07:36:38.873Z,1.20
2018-06-29T07:39:07.957Z,1.25
2018-06-29T07:41:36.288Z,1.27
2018-06-29T07:44:04.649Z,1.25
2018-06-29T07:46:33.065Z,1.32
2018-06-29T07:49:01.367Z,1.32
2018-06-29T07:51:29.706Z,1.32
2018-06-29T07:53:58.080Z,1.40
2018-06-29T07:56:26.510Z,1.20
2018-06-29T07:58:54.910Z,1.20
2018-06-29T08:01:23.271Z,1.20
2018-06-29T08:03:51.728Z,1.10
2018-06-29T08:06:20.069Z,1.35
2018-06-29T08:08:48.420Z,1.07
2018-06-29T08:11:16.751Z,1.10
2018-06-29T08:13:45.100Z,1.37
2018-06-29T08:16:13.466Z,1.20
2018-06-29T08:18:41.813Z,1.30
2018-06-29T08:21:10.171Z,1.30
2018-06-29T08:23:38.545Z,1.42
2018-06-29T08:26:18.325Z,1.30
2018-06-29T08:28:46.675Z,1.20
2018-06-29T08:31:15.035Z,1.15
2018-06-29T08:33:43.410Z,1.20
2018-06-29T08:36:11.832Z,1.45
2018-06-29T08:38:40.194Z,1.55
2018-06-29T08:41:08.795Z,1.30
2018-06-29T08:43:37.137Z,1.22
2018-06-29T08:46:05.517Z,1.30
2018-06-29T08:48:33.914Z,1.55
2018-06-29T08:51:02.393Z,1.50
2018-06-29T08:53:31.308Z,1.30
2018-06-29T08:55:59.660Z,1.52
2018-06-29T08:58:28.041Z,1.50
2018-06-29T09:00:56.381Z,1.30
2018-06-29T09:03:24.812Z,1.47
2018-06-29T09:05:53.180Z,1.30
2018-06-29T09:08:21.632Z,1.20
2018-06-29T09:10:50.005Z,1.10
2018-06-29T09:13:18.366Z,1.10
2018-06-29T09:15:46.765Z,1.40
2018-06-29T09:18:15.142Z,1.10
2018-06-29T09:20:43.501Z,1.30
2018-06-29T09:23:11.885Z,1.20
2018-06-29T09:25:40.283Z,1.40
2018-06-29T09:28:08.647Z,1.20
2018-06-29T09:30:37.040Z,1.40
2018-06-29T09:33:05.661Z,1.32
2018-06-29T09:35:33.993Z,1.20
2018-06-29T09:38:02.383Z,1.20
2018-06-29T09:40:30.731Z,1.00
2018-06-29T09:42:59.100Z,1.20
2018-06-29T09:45:27.450Z,1.10
2018-06-29T09:47:55.814Z,1.10
2018-06-29T09:50:24.169Z,1.10
2018-06-29T09:52:52.507Z,1.30
2018-06-29T09:55:20.868Z,1.20
2018-06-29T09:57:49.200Z,1.07
2018-06-29T10:00:21.772Z,0.90
2018-06-29T10:02:50.128Z,0.98
2018-06-29T10:05:18.472Z,1.25
2018-06-29T10:07:46.811Z,1.00
2018-06-29T10:10:15.137Z,1.10
2018-06-29T10:12:43.478Z,1.20
2018-06-29T10:15:11.855Z,1.40
2018-06-29T10:17:40.196Z,1.20
2018-06-29T10:20:08.640Z,1.30
2018-06-29T10:22:36.891Z,1.10
2018-06-29T10:25:05.257Z,1.15
2018-06-29T10:27:33.592Z,1.20
2018-06-29T10:30:01.928Z,0.98
2018-06-29T10:32:30.288Z,1.00
2018-06-29T10:34:58.825Z,1.20
2018-06-29T10:37:27.173Z,1.07
2018-06-29T10:39:55.532Z,1.30
2018-06-29T10:42:23.889Z,1.12
2018-06-29T10:44:52.321Z,1.30
2018-06-29T10:47:20.724Z,1.10
2018-06-29T10:49:49.054Z,1.05
2018-06-29T10:52:17.383Z,1.40
2018-06-29T10:54:45.749Z,1.40
2018-06-29T10:57:14.157Z,1.30
2018-06-29T10:59:42.588Z,1.67
2018-06-29T11:02:10.917Z,1.50
2018-06-29T11:04:39.222Z,1.70
2018-06-29T11:07:07.598Z,1.70
2018-06-29T11:09:35.934Z,1.40
2018-06-29T11:12:05.018Z,1.20
2018-06-29T11:14:33.572Z,1.37
2018-06-29T11:17:01.921Z,1.60
2018-06-29T11:19:30.284Z,1.75
2018-06-29T11:21:58.643Z,1.75
2018-06-29T11:24:27.044Z,1.70
2018-06-29T11:26:55.357Z,1.90
2018-06-29T11:29:23.662Z,1.60
2018-06-29T11:31:51.979Z,1.70
2018-06-29T11:34:20.355Z,1.90
2018-06-29T11:36:48.772Z,1.90
2018-06-29T11:39:17.056Z,1.70
2018-06-29T11:41:45.493Z,1.70
2018-06-29T11:44:13.971Z,1.80
2018-06-29T11:46:42.336Z,1.70
2018-06-29T11:49:10.707Z,1.77
2018-06-29T11:51:39.044Z,1.80
2018-06-29T11:54:07.887Z,1.43
2018-06-29T11:56:36.289Z,1.60
2018-06-29T11:59:04.639Z,1.83
2018-06-29T12:01:32.954Z,1.73
2018-06-29T12:04:01.518Z,1.70
2018-06-29T12:06:29.880Z,1.50
2018-06-29T12:08:58.324Z,1.80
2018-06-29T12:11:26.680Z,1.50
2018-06-29T12:13:55.352Z,1.73
2018-06-29T12:16:23.689Z,1.80
2018-06-29T12:18:52.037Z,1.90
2018-06-29T12:21:20.376Z,1.80
2018-06-29T12:23:48.690Z,1.80
2018-06-29T12:26:17.077Z,1.70
2018-06-29T12:28:45.479Z,1.70
2018-06-29T12:31:13.843Z,1.80
2018-06-29T12:33:42.202Z,1.83
2018-06-29T12:36:10.557Z,1.77
2018-06-29T12:38:38.891Z,1.90
2018-06-29T12:41:07.238Z,1.50
2018-06-29T12:43:35.651Z,1.63
2018-06-29T12:46:03.995Z,1.70
2018-06-29T12:48:32.663Z,1.87
2018-06-29T12:51:01.013Z,1.87
2018-06-29T12:53:29.426Z,2.47
2018-06-29T12:55:57.844Z,2.17
2018-06-29T12:58:26.180Z,2.00
2018-06-29T13:00:54.555Z,1.97
2018-06-29T13:03:22.924Z,1.87
2018-06-29T13:05:51.258Z,1.90
2018-06-29T13:08:19.619Z,1.87
2018-06-29T13:10:48.127Z,1.80
2018-06-29T13:13:16.483Z,1.67
2018-06-29T13:15:44.860Z,1.80
2018-06-29T13:18:13.216Z,1.80
2018-06-29T13:20:41.604Z,2.07
2018-06-29T13:23:10.026Z,2.07
2018-06-29T13:25:38.355Z,2.03
2018-06-29T13:28:06.699Z,1.83
2018-06-29T13:30:35.046Z,1.97
2018-06-29T13:33:03.383Z,1.67
2018-06-29T13:35:31.877Z,2.00
2018-06-29T13:38:00.251Z,1.23
2018-06-29T13:40:28.610Z,1.90
2018-06-29T13:42:56.939Z,1.37
2018-06-29T13:45:25.294Z,1.90
2018-06-29T13:47:53.644Z,1.50
2018-06-29T13:50:21.992Z,1.20
2018-06-29T13:52:50.319Z,1.50
2018-06-29T13:55:18.682Z,1.50
2018-06-29T13:57:46.980Z,1.53
2018-06-29T14:00:15.365Z,1.50
2018-06-29T14:02:43.714Z,1.50
2018-06-29T14:05:12.213Z,1.70
2018-06-29T14:07:40.528Z,1.83
2018-06-29T14:10:08.493Z,2.30
2018-06-29T14:12:36.820Z,1.77
2018-06-29T14:15:05.185Z,1.93
2018-06-29T14:17:33.550Z,1.93
2018-06-29T14:20:01.898Z,2.00
2018-06-29T14:22:30.237Z,2.00
2018-06-29T14:24:58.579Z,1.97
2018-06-29T14:27:26.911Z,1.80
2018-06-29T14:29:55.256Z,2.10
2018-06-29T14:32:23.567Z,2.10
2018-06-29T14:34:51.895Z,1.90
2018-06-29T14:37:20.204Z,1.70
2018-06-29T14:39:48.530Z,2.20
2018-06-29T14:42:17.030Z,1.67
2018-06-29T14:44:45.382Z,1.77
2018-06-29T14:47:13.821Z,1.90
2018-06-29T14:49:42.195Z,1.60
2018-06-29T14:52:10.500Z,1.90
2018-06-29T14:54:38.880Z,1.47
2018-06-29T14:57:07.289Z,1.57
2018-06-29T14:59:35.661Z,1.53
2018-06-29T15:02:04.070Z,1.40
2018-06-29T15:04:32.434Z,1.50
2018-06-29T15:07:00.818Z,1.60
2018-06-29T15:09:29.202Z,1.83
2018-06-29T15:11:57.607Z,1.70
2018-06-29T15:14:25.942Z,1.60
2018-06-29T15:16:54.287Z,1.20
2018-06-29T15:19:22.669Z,1.50
2018-06-29T15:21:51.065Z,1.40
2018-06-29T15:24:19.419Z,1.60
2018-06-29T15:26:48.355Z,1.60
2018-06-29T15:29:16.696Z,1.70
2018-06-29T15:31:45.179Z,1.63
2018-06-29T15:34:13.531Z,1.77
2018-06-29T15:36:41.914Z,1.73
2018-06-29T15:39:12.244Z,1.87
2018-06-29T15:41:40.823Z,1.90
2018-06-29T15:44:09.613Z,1.57
2018-06-29T15:46:38.021Z,2.00
2018-06-29T15:49:07.144Z,1.93
2018-06-29T15:51:35.535Z,2.47
2018-06-29T15:54:03.899Z,2.50
2018-06-29T15:56:32.252Z,2.73
2018-06-29T15:59:00.754Z,2.53
2018-06-29T16:01:29.127Z,2.70
2018-06-29T16:03:57.473Z,2.60
2018-06-29T16:06:25.843Z,3.03
2018-06-29T16:08:54.207Z,3.10
2018-06-29T16:11:22.569Z,3.00
2018-06-29T16:13:51.154Z,2.70
2018-06-29T16:16:19.520Z,3.03
2018-06-29T16:18:47.872Z,3.13
2018-06-29T16:21:16.246Z,3.50
2018-06-29T16:23:44.576Z,3.43
2018-06-29T16:26:12.935Z,3.50
2018-06-29T16:28:41.289Z,3.10
2018-06-29T16:31:09.704Z,3.63
2018-06-29T16:33:38.110Z,3.40
2018-06-29T16:36:06.452Z,3.30
2018-06-29T16:38:34.869Z,2.77
2018-06-29T16:41:03.220Z,2.90
2018-06-29T16:43:31.629Z,3.10
2018-06-29T16:45:59.998Z,3.13
2018-06-29T16:48:28.357Z,2.93
2018-06-29T16:50:56.764Z,2.80
2018-06-29T16:53:25.188Z,2.60
2018-06-29T16:55:53.551Z,2.47
2018-06-29T16:58:21.988Z,2.30
2018-06-29T17:00:50.284Z,2.47
2018-06-29T17:03:18.667Z,2.30
2018-06-29T17:05:47.045Z,2.27
2018-06-29T17:08:15.381Z,2.40
2018-06-29T17:10:43.729Z,2.20
2018-06-29T17:13:12.114Z,2.10
2018-06-29T17:15:40.472Z,2.40
2018-06-29T17:18:08.834Z,2.40
2018-06-29T17:20:37.217Z,2.47
2018-06-29T17:23:06.104Z,2.33
2018-06-29T17:25:34.493Z,2.50
2018-06-29T17:28:03.278Z,2.70
2018-06-29T17:30:31.719Z,2.40
2018-06-29T17:33:00.111Z,2.63
2018-06-29T17:35:28.510Z,2.03
2018-06-29T17:37:56.996Z,2.53
2018-06-29T17:40:25.339Z,2.60
2018-06-29T17:42:53.685Z,2.43
2018-06-29T17:45:22.134Z,2.57
2018-06-29T17:47:50.479Z,2.50
2018-06-29T17:50:18.816Z,2.70
2018-06-29T17:52:47.208Z,2.27
2018-06-29T17:55:15.612Z,2.30
2018-06-29T17:57:44.029Z,2.80
2018-06-29T18:00:12.476Z,2.40
2018-06-29T18:02:40.841Z,2.30
2018-06-29T18:05:09.224Z,2.67
2018-06-29T18:07:37.614Z,2.30
2018-06-29T18:10:05.999Z,2.70
2018-06-29T18:12:34.371Z,2.73
2018-06-29T18:15:02.779Z,2.60
2018-06-29T18:17:31.129Z,2.57
2018-06-29T18:19:59.485Z,2.90
2018-06-29T18:22:27.849Z,2.70
2018-06-29T18:24:56.163Z,2.83
2018-06-29T18:27:24.550Z,2.57
2018-06-29T18:29:52.883Z,2.70
2018-06-29T18:32:21.232Z,2.73
2018-06-29T18:34:49.571Z,2.37
2018-06-29T18:37:17.955Z,2.10
2018-06-29T18:39:46.303Z,2.50
2018-06-29T18:42:14.690Z,2.20
2018-06-29T18:44:43.048Z,2.10
2018-06-29T18:47:11.411Z,2.10
2018-06-29T18:49:39.775Z,2.47
2018-06-29T18:52:08.186Z,1.83
2018-06-29T18:54:36.541Z,2.20
2018-06-29T18:57:04.923Z,2.13
2018-06-29T18:59:33.252Z,2.30
2018-06-29T19:02:01.580Z,1.90
2018-06-29T19:04:29.924Z,2.17
2018-06-29T19:06:58.277Z,2.07
2018-06-29T19:09:25.679Z,2.00
2018-06-29T19:11:53.990Z,2.23
2018-06-29T19:14:22.346Z,2.20
2018-06-29T19:16:50.644Z,2.10
2018-06-29T19:19:18.998Z,2.40
2018-06-29T19:21:47.312Z,2.23
2018-06-29T19:24:16.033Z,1.93
2018-06-29T19:26:44.380Z,1.97
2018-06-29T19:29:13.204Z,2.40
2018-06-29T19:31:42.537Z,1.97
2018-06-29T19:34:11.040Z,2.13
2018-06-29T19:36:39.398Z,2.03
2018-06-29T19:39:10.470Z,2.50
2018-06-29T19:41:40.301Z,1.67
2018-06-29T19:44:10.066Z,1.60
2018-06-29T19:46:38.718Z,1.50
2018-06-29T19:49:07.662Z,1.67
2018-06-29T19:51:36.120Z,1.80
2018-06-29T19:54:04.818Z,1.40
2018-06-29T19:56:33.477Z,1.40
2018-06-29T19:59:02.105Z,1.40
2018-06-29T20:01:30.412Z,1.10
2018-06-29T20:03:58.735Z,1.40
2018-06-29T20:06:27.084Z,1.40
2018-06-29T20:08:55.422Z,1.23
2018-06-29T20:11:23.791Z,1.33
2018-06-29T20:13:52.143Z,1.30
2018-06-29T20:16:20.531Z,1.37
2018-06-29T20:18:48.860Z,1.30
2018-06-29T20:21:17.214Z,1.57
2018-06-29T20:23:45.632Z,1.40
2018-06-29T20:26:14.017Z,1.53
2018-06-29T20:28:42.393Z,1.40
2018-06-29T20:31:10.775Z,1.03
2018-06-29T20:33:39.110Z,1.30
2018-06-29T20:36:07.878Z,1.27
2018-06-29T20:38:36.278Z,1.10
2018-06-29T20:41:04.938Z,0.97
2018-06-29T20:43:33.594Z,0.90
2018-06-29T20:46:01.979Z,1.10
2018-06-29T20:48:30.648Z,1.30
2018-06-29T20:50:59.175Z,1.10
2018-06-29T20:53:28.926Z,1.10
2018-06-29T20:55:57.392Z,1.20
2018-06-29T20:58:25.754Z,1.20
2018-06-29T21:00:54.571Z,1.20
2018-06-29T21:03:22.987Z,1.20
2018-06-29T21:05:51.360Z,1.40
2018-06-29T21:08:19.732Z,1.00
2018-06-29T21:10:48.079Z,1.10
2018-06-29T21:13:16.460Z,0.90
2018-06-29T21:15:44.839Z,1.10
2018-06-29T21:18:13.196Z,1.20
2018-06-29T21:20:41.873Z,1.20
2018-06-29T21:23:10.892Z,1.00
2018-06-29T21:25:39.960Z,1.10
2018-06-29T21:28:08.902Z,1.13
2018-06-29T21:30:37.229Z,1.30
2018-06-29T21:33:05.854Z,1.20
2018-06-29T21:35:34.298Z,1.17
2018-06-29T21:38:03.117Z,1.10
2018-06-29T21:40:32.085Z,1.10
2018-06-29T21:43:00.453Z,1.30
2018-06-29T21:45:28.773Z,1.50
2018-06-29T21:47:57.216Z,1.07
2018-06-29T21:50:25.605Z,1.20
2018-06-29T21:52:53.972Z,1.13
2018-06-29T21:55:22.561Z,1.67
2018-06-29T21:57:50.914Z,1.10
2018-06-29T22:00:19.625Z,1.30
2018-06-29T22:02:48.012Z,1.23
2018-06-29T22:05:17.323Z,1.20
2018-06-29T22:07:45.955Z,1.23
2018-06-29T22:10:14.291Z,1.30
2018-06-29T22:12:42.645Z,1.07
2018-06-29T22:15:16.111Z,1.00
2018-06-29T22:17:44.485Z,1.13
2018-06-29T22:20:12.863Z,0.93
2018-06-29T22:22:41.215Z,1.10
2018-06-29T22:25:10.299Z,1.10
2018-06-29T22:27:38.683Z,1.00
2018-06-29T22:30:07.268Z,1.00
2018-06-29T22:32:35.614Z,1.13
2018-06-29T22:35:03.997Z,1.30
2018-06-29T22:37:32.343Z,1.10
2018-06-29T22:40:00.724Z,1.17
2018-06-29T22:42:29.066Z,1.20
2018-06-29T22:44:57.430Z,1.03
2018-06-29T22:47:25.797Z,1.00
2018-06-29T22:49:54.168Z,1.23
2018-06-29T22:52:22.516Z,1.10
2018-06-29T22:54:50.890Z,1.07
2018-06-29T22:57:19.271Z,1.00
2018-06-29T22:59:47.621Z,1.00
2018-06-29T23:02:15.991Z,0.90
2018-06-29T23:04:44.364Z,1.20
2018-06-29T23:07:12.725Z,1.13
2018-06-29T23:09:41.116Z,1.10
2018-06-29T23:12:09.518Z,1.53
2018-06-29T23:14:37.927Z,1.03
2018-06-29T23:17:06.973Z,1.00
2018-06-29T23:19:35.566Z,1.00
2018-06-29T23:22:03.952Z,0.90
2018-06-29T23:24:32.264Z,1.00
2018-06-29T23:27:00.631Z,1.27
2018-06-29T23:29:28.981Z,1.00
2018-06-29T23:31:57.329Z,0.80
2018-06-29T23:34:25.644Z,0.80
2018-06-29T23:36:54.061Z,1.00
2018-06-29T23:39:22.388Z,1.07
2018-06-29T23:41:50.703Z,1.07
2018-06-29T23:44:19.047Z,0.93
2018-06-29T23:46:47.417Z,0.90
2018-06-29T23:49:15.825Z,1.13
2018-06-29T23:51:44.191Z,1.00
2018-06-29T23:54:12.540Z,1.00
2018-06-29T23:56:40.891Z,0.90
2018-06-29T23:59:09.229Z,0.83
